sensor_id;sensor_type;location;lat;lon;timestamp;pressure;altitude;pressure_sealevel;temperature;humidity
29815;BME280;16708;50.426;7.664;2023-02-04T00:03:26;1001.02;;;6.78;100.00
29815;BME280;16708;50.426;7.664;2023-02-04T00:18:05;1001.10;;;6.74;100.00
29815;BME280;16708;50.426;7.664;2023-02-04T00:32:44;1001.33;;;6.80;100.00
29815;BME280;16708;50.426;7.664;2023-02-04T00:47:19;1001.30;;;6.66;100.00
29815;BME280;16708;50.426;7.664;2023-02-04T01:01:58;1001.46;;;6.60;100.00
29815;BME280;16708;50.426;7.664;2023-02-04T01:16:37;1001.61;;;6.50;100.00
29815;BME280;16708;50.426;7.664;2023-02-04T01:31:15;1001.70;;;6.39;100.00
29815;BME280;16708;50.426;7.664;2023-02-04T01:45:53;1001.78;;;6.32;100.00
29815;BME280;16708;50.426;7.664;2023-02-04T02:00:32;1001.94;;;6.28;100.00
29815;BME280;16708;50.426;7.664;2023-02-04T02:15:11;1001.96;;;6.17;100.00
29815;BME280;16708;50.426;7.664;2023-02-04T02:29:47;1002.23;;;6.07;100.00
29815;BME280;16708;50.426;7.664;2023-02-04T02:44:26;1002.17;;;6.01;100.00
29815;BME280;16708;50.426;7.664;2023-02-04T03:13:35;1002.45;;;5.91;100.00
29815;BME280;16708;50.426;7.664;2023-02-04T03:28:12;1002.51;;;5.83;100.00
29815;BME280;16708;50.426;7.664;2023-02-04T03:42:44;1002.75;;;5.77;100.00
29815;BME280;16708;50.426;7.664;2023-02-04T04:11:56;1002.86;;;5.56;100.00
29815;BME280;16708;50.426;7.664;2023-02-04T04:26:33;1002.78;;;5.47;100.00
29815;BME280;16708;50.426;7.664;2023-02-04T04:55:47;1003.11;;;5.43;100.00
29815;BME280;16708;50.426;7.664;2023-02-04T05:24:41;1003.33;;;5.32;100.00
29815;BME280;16708;50.426;7.664;2023-02-04T05:39:21;1003.51;;;5.29;100.00
29815;BME280;16708;50.426;7.664;2023-02-04T06:08:34;1003.70;;;5.31;100.00
29815;BME280;16708;50.426;7.664;2023-02-04T06:37:43;1004.02;;;5.31;100.00
29815;BME280;16708;50.426;7.664;2023-02-04T07:06:42;1004.27;;;5.20;100.00
29815;BME280;16708;50.426;7.664;2023-02-04T07:35:55;1004.68;;;5.32;100.00
29815;BME280;16708;50.426;7.664;2023-02-04T08:05:00;1004.96;;;5.82;100.00
29815;BME280;16708;50.426;7.664;2023-02-04T08:19:33;1005.03;;;6.27;100.00
29815;BME280;16708;50.426;7.664;2023-02-04T08:34:14;1005.26;;;6.63;100.00
29815;BME280;16708;50.426;7.664;2023-02-04T08:48:54;1005.32;;;6.39;100.00
29815;BME280;16708;50.426;7.664;2023-02-04T09:03:34;1005.38;;;6.58;100.00
29815;BME280;16708;50.426;7.664;2023-02-04T09:18:15;1005.55;;;6.72;100.00
29815;BME280;16708;50.426;7.664;2023-02-04T09:32:48;1005.68;;;7.36;100.00
29815;BME280;16708;50.426;7.664;2023-02-04T09:47:27;1005.82;;;7.58;100.00
29815;BME280;16708;50.426;7.664;2023-02-04T10:02:06;1006.04;;;7.31;100.00
29815;BME280;16708;50.426;7.664;2023-02-04T10:16:44;1006.14;;;7.76;100.00
29815;BME280;16708;50.426;7.664;2023-02-04T10:31:23;1006.11;;;8.45;100.00
29815;BME280;16708;50.426;7.664;2023-02-04T10:46:08;1006.10;;;12.06;84.27
29815;BME280;16708;50.426;7.664;2023-02-04T11:00:49;1006.02;;;9.02;100.00
29815;BME280;16708;50.426;7.664;2023-02-04T11:29:59;1006.28;;;8.79;100.00
29815;BME280;16708;50.426;7.664;2023-02-04T11:44:38;1006.07;;;10.01;100.00
29815;BME280;16708;50.426;7.664;2023-02-04T11:59:15;1006.26;;;9.22;100.00
29815;BME280;16708;50.426;7.664;2023-02-04T12:13:53;1006.25;;;9.41;100.00
29815;BME280;16708;50.426;7.664;2023-02-04T12:28:31;1006.14;;;9.29;100.00
29815;BME280;16708;50.426;7.664;2023-02-04T12:43:29;1006.19;;;17.77;41.47
29815;BME280;16708;50.426;7.664;2023-02-04T12:58:09;1006.26;;;10.44;74.81
29815;BME280;16708;50.426;7.664;2023-02-04T13:12:41;1006.09;;;10.66;69.84
29815;BME280;16708;50.426;7.664;2023-02-04T13:27:14;1006.05;;;10.64;61.63
29815;BME280;16708;50.426;7.664;2023-02-04T13:41:49;1006.04;;;9.68;76.40
29815;BME280;16708;50.426;7.664;2023-02-04T13:56:26;1006.14;;;10.06;73.46
29815;BME280;16708;50.426;7.664;2023-02-04T14:11:04;1006.11;;;9.04;82.38
29815;BME280;16708;50.426;7.664;2023-02-04T14:25:39;1006.10;;;9.59;84.00
29815;BME280;16708;50.426;7.664;2023-02-04T14:40:18;1006.18;;;11.54;58.61
29815;BME280;16708;50.426;7.664;2023-02-04T14:55:03;1006.15;;;12.41;56.04
29815;BME280;16708;50.426;7.664;2023-02-04T15:09:37;1006.25;;;8.67;100.00
29815;BME280;16708;50.426;7.664;2023-02-04T15:24:11;1006.36;;;9.22;100.00
29815;BME280;16708;50.426;7.664;2023-02-04T15:38:48;1006.42;;;10.71;76.45
29815;BME280;16708;50.426;7.664;2023-02-04T15:53:24;1006.49;;;9.47;99.40
29815;BME280;16708;50.426;7.664;2023-02-04T16:07:59;1006.54;;;8.60;100.00
29815;BME280;16708;50.426;7.664;2023-02-04T16:22:33;1006.60;;;7.80;100.00
29815;BME280;16708;50.426;7.664;2023-02-04T16:37:08;1006.59;;;7.21;100.00
29815;BME280;16708;50.426;7.664;2023-02-04T16:51:42;1006.84;;;6.65;100.00
29815;BME280;16708;50.426;7.664;2023-02-04T17:06:17;1006.81;;;5.95;100.00
29815;BME280;16708;50.426;7.664;2023-02-04T17:20:55;1007.10;;;5.56;100.00
29815;BME280;16708;50.426;7.664;2023-02-04T17:35:32;1007.14;;;5.03;100.00
29815;BME280;16708;50.426;7.664;2023-02-04T17:50:04;1007.18;;;4.53;100.00
29815;BME280;16708;50.426;7.664;2023-02-04T18:04:41;1007.26;;;4.20;100.00
29815;BME280;16708;50.426;7.664;2023-02-04T18:33:54;1007.35;;;3.61;100.00
29815;BME280;16708;50.426;7.664;2023-02-04T19:17:47;1007.28;;;2.65;100.00
29815;BME280;16708;50.426;7.664;2023-02-04T21:14:39;1007.60;;;1.38;100.00
29815;BME280;16708;50.426;7.664;2023-02-04T21:29:18;1007.68;;;1.69;100.00
29815;BME280;16708;50.426;7.664;2023-02-04T21:43:54;1007.55;;;2.07;100.00
29815;BME280;16708;50.426;7.664;2023-02-04T21:58:29;1007.65;;;2.14;100.00
29815;BME280;16708;50.426;7.664;2023-02-04T22:13:04;1007.46;;;2.01;100.00
29815;BME280;16708;50.426;7.664;2023-02-04T22:27:43;1007.59;;;2.19;100.00
29815;BME280;16708;50.426;7.664;2023-02-04T22:42:23;1007.54;;;2.47;100.00
29815;BME280;16708;50.426;7.664;2023-02-04T22:57:01;1007.54;;;2.47;100.00
29815;BME280;16708;50.426;7.664;2023-02-04T23:11:39;1007.58;;;2.77;100.00
29815;BME280;16708;50.426;7.664;2023-02-04T23:26:10;1007.54;;;2.96;100.00
29815;BME280;16708;50.426;7.664;2023-02-04T23:40:47;1007.47;;;3.01;100.00
29815;BME280;16708;50.426;7.664;2023-02-04T23:55:25;1007.71;;;3.12;100.00
